Aeroporto :
LOGIN :

Iscrizione | Disclaimer

   EN    FR    IT 

 










Sommario :    VFR   VFR Marginale   IFR   IFR Intensivo   IFR Molto Intensivo
Visibilità : 
Base nubi : 
>= 8 km
>= 3000ft
5 / 8 km
1000 / 3000 ft
1500m / 5 km
500 / 1000 ft
800 / 1500m
200 / 500 ft
< 800m
< 200 ft
Simboli :   Temporali  Nebbia  Neve Forte  Precipitazioni Forti  Vento > 20 kt
SIGMETs :   Varie  Temporali  Ghiacco  Turbolenza  Onda orograficha  Ceneri Vulcaniche






- Altitudine del aeroporto : 506 ft
- Codice IATA : GOT


ESGG - Landvetter

ULTIMO METAR :
  • 131450Z 11006KT 9999 FEW009 BKN037 04/03 Q0999 R21/29//95

METARs OBSOLETI :
  • 131420Z 12005KT 9999 SCT008 BKN012 BKN035 04/03 Q1000 R21/29//95
  • 131350Z 13006KT 9999 SCT009 BKN016 04/03 Q1000 R21/29//95
  • 131320Z 14005KT 9999 SCT008 BKN020 04/03 Q0999 R21/29//95
  • 131250Z 14007KT 9999 FEW005 BKN011 04/03 Q0999 R21/29//95
  • 131220Z 13006KT 9999 BKN006 BKN009 04/03 Q0999 R21/29//95

TAF TAF ESGG
Valido dal 13 a 12 ore il 14 a 12 ore UTC


131130Z 1312/1412 14008KT 9999 BKN005
PROB40 1312/1318 BKN018
PROB40 1318/1406 2000 BR BKN004
PROB40 1406/1412 SCT020CB



MetMap, La meteo Aeronautica in un colpo d'occhio ! - Copyright ORBIFLY Dicembre 2007 - Disclaimer

ORBIFLY MET'MAP TEAM :

Programmazione e sviluppo : Alexandra Zaïnal
Concezione e sviluppo : Baudouin d'Aumeries
Co-Programmazione e sviluppo : Marc-Olivier Méhu
Supporto tecnico e logistico : Manuel Goepfert
Aiuto per la traduzione : Arnaldo La Scala

Contatto : metmap@orbifly.com




FONTI E CREDITI :

   NOAA